createdAt,value
2022-12-31T00:01:49.367Z,0.63
2022-12-31T00:16:54.952Z,0.40
2022-12-31T00:32:03.206Z,0.60
2022-12-31T00:47:08.798Z,0.50
2022-12-31T01:02:18.717Z,0.70
2022-12-31T01:17:24.660Z,0.60
2022-12-31T01:32:30.379Z,0.40
2022-12-31T01:47:42.847Z,0.40
2022-12-31T02:02:48.692Z,0.30
2022-12-31T02:18:04.514Z,0.20
2022-12-31T02:33:15.658Z,0.20
2022-12-31T02:48:37.953Z,0.10
2022-12-31T03:03:43.813Z,0.20
2022-12-31T03:19:03.265Z,0.20
2022-12-31T03:34:08.839Z,0.27
2022-12-31T03:49:14.420Z,0.40
2022-12-31T04:04:19.977Z,0.43
2022-12-31T04:19:25.712Z,0.50
2022-12-31T04:34:31.421Z,0.30
2022-12-31T04:49:36.829Z,0.30
2022-12-31T05:04:42.294Z,0.20
2022-12-31T05:19:47.747Z,0.30
2022-12-31T05:34:54.247Z,0.30
2022-12-31T05:49:59.902Z,0.40
2022-12-31T06:05:06.610Z,0.50
2022-12-31T06:20:13.413Z,0.60
2022-12-31T06:35:19.165Z,0.60
2022-12-31T06:50:24.794Z,0.67
2022-12-31T07:05:40.824Z,0.70
2022-12-31T07:20:47.405Z,0.50
2022-12-31T07:36:06.278Z,0.80
2022-12-31T07:51:13.633Z,0.60
2022-12-31T08:06:26.246Z,0.60
2022-12-31T08:21:44.715Z,0.80
2022-12-31T08:36:58.144Z,0.80
2022-12-31T08:52:05.107Z,0.90
2022-12-31T09:07:12.112Z,0.90
2022-12-31T09:22:19.030Z,0.73
2022-12-31T09:37:39.275Z,0.67
2022-12-31T09:53:02.971Z,0.90
2022-12-31T10:08:20.567Z,0.90
2022-12-31T10:23:57.050Z,1.07
2022-12-31T10:39:18.972Z,1.03
2022-12-31T10:55:14.607Z,0.90
2022-12-31T11:11:14.619Z,0.90
2022-12-31T11:26:39.543Z,1.00
2022-12-31T11:41:52.024Z,0.83
2022-12-31T11:57:06.417Z,0.80
2022-12-31T12:12:12.179Z,0.70
2022-12-31T12:27:25.636Z,0.70
2022-12-31T12:42:31.803Z,0.73
2022-12-31T12:57:50.165Z,0.80
2022-12-31T13:13:25.402Z,0.80
2022-12-31T13:28:34.908Z,0.75
2022-12-31T13:43:51.037Z,1.15
2022-12-31T13:59:03.912Z,1.10
2022-12-31T14:14:24.945Z,1.38
2022-12-31T14:29:35.555Z,1.10
2022-12-31T16:08:56.614Z,4.70
2022-12-31T16:24:04.805Z,2.73
2022-12-31T16:39:27.060Z,3.00
2022-12-31T16:54:37.849Z,14.93
2022-12-31T17:09:43.500Z,2.77
2022-12-31T17:24:51.498Z,2.30
2022-12-31T17:55:28.050Z,4.87
2022-12-31T18:10:38.451Z,2.90
2022-12-31T18:40:58.110Z,15.93
2022-12-31T18:56:03.596Z,6.93
2022-12-31T19:11:14.106Z,12.47
2022-12-31T19:26:22.138Z,7.43
2022-12-31T19:41:27.787Z,5.47
2022-12-31T19:56:33.293Z,9.23
2022-12-31T20:11:38.834Z,6.30
2022-12-31T20:26:44.304Z,5.07
2022-12-31T20:41:49.873Z,3.33
2022-12-31T20:56:55.472Z,6.10
2022-12-31T21:12:18.922Z,3.90
2022-12-31T21:27:29.758Z,4.73
2022-12-31T21:42:35.370Z,2.73
2022-12-31T21:58:15.499Z,2.57
2022-12-31T22:13:07.109Z,6.27
2022-12-31T22:28:37.547Z,22.63
2022-12-31T22:47:25.546Z,22.77
2022-12-31T22:52:29.631Z,3.47
2022-12-31T22:57:33.684Z,11.83
2022-12-31T23:02:42.034Z,18.90
2022-12-31T23:07:46.524Z,58.30
2022-12-31T23:12:50.500Z,79.23
2022-12-31T23:18:13.442Z,134.53
2022-12-31T23:23:18.506Z,125.20
2022-12-31T23:28:25.367Z,62.83
2022-12-31T23:33:30.963Z,35.37
2022-12-31T23:38:35.155Z,28.43
2022-12-31T23:43:40.452Z,33.57
2022-12-31T23:48:45.914Z,22.37
2022-12-31T23:53:51.537Z,13.57
2022-12-31T23:58:56.341Z,13.73
